sensor_id;sensor_type;location;lat;lon;timestamp;pressure;altitude;pressure_sealevel;temperature;humidity
62694;BME280;48759;52.544;13.418;2023-10-31T00:01:40;98948.94;;;13.26;100.00
62694;BME280;48759;52.544;13.418;2023-10-31T00:04:07;98953.34;;;13.15;100.00
62694;BME280;48759;52.544;13.418;2023-10-31T00:06:35;98952.03;;;13.30;100.00
62694;BME280;48759;52.544;13.418;2023-10-31T00:09:02;98951.78;;;13.31;100.00
62694;BME280;48759;52.544;13.418;2023-10-31T00:11:28;98955.47;;;13.37;100.00
62694;BME280;48759;52.544;13.418;2023-10-31T00:13:55;98951.06;;;13.24;100.00
62694;BME280;48759;52.544;13.418;2023-10-31T00:16:22;98965.25;;;13.33;100.00
62694;BME280;48759;52.544;13.418;2023-10-31T00:18:49;98946.16;;;13.38;100.00
62694;BME280;48759;52.544;13.418;2023-10-31T00:21:16;98950.47;;;13.34;100.00
62694;BME280;48759;52.544;13.418;2023-10-31T00:23:46;98975.78;;;13.24;100.00
62694;BME280;48759;52.544;13.418;2023-10-31T00:26:13;98968.13;;;13.38;100.00
62694;BME280;48759;52.544;13.418;2023-10-31T00:28:39;98968.97;;;13.27;100.00
62694;BME280;48759;52.544;13.418;2023-10-31T00:31:07;98977.81;;;13.29;100.00
62694;BME280;48759;52.544;13.418;2023-10-31T00:33:34;98975.19;;;13.22;100.00
62694;BME280;48759;52.544;13.418;2023-10-31T00:36:01;98966.47;;;13.25;100.00
62694;BME280;48759;52.544;13.418;2023-10-31T00:38:28;98949.75;;;13.27;100.00
62694;BME280;48759;52.544;13.418;2023-10-31T00:40:56;98943.09;;;13.23;100.00
62694;BME280;48759;52.544;13.418;2023-10-31T00:43:23;98951.56;;;13.21;100.00
62694;BME280;48759;52.544;13.418;2023-10-31T00:45:50;98931.91;;;13.12;100.00
62694;BME280;48759;52.544;13.418;2023-10-31T00:48:16;98940.22;;;13.17;100.00
62694;BME280;48759;52.544;13.418;2023-10-31T00:50:43;98938.78;;;13.27;100.00
62694;BME280;48759;52.544;13.418;2023-10-31T00:53:10;98934.50;;;13.07;100.00
62694;BME280;48759;52.544;13.418;2023-10-31T00:55:37;98936.44;;;12.95;100.00
62694;BME280;48759;52.544;13.418;2023-10-31T00:58:05;98939.53;;;13.10;100.00
62694;BME280;48759;52.544;13.418;2023-10-31T01:00:31;98946.91;;;13.21;100.00
62694;BME280;48759;52.544;13.418;2023-10-31T01:02:59;98950.88;;;13.14;100.00
62694;BME280;48759;52.544;13.418;2023-10-31T01:05:26;98954.09;;;13.11;100.00
62694;BME280;48759;52.544;13.418;2023-10-31T01:07:53;98957.19;;;13.14;100.00
62694;BME280;48759;52.544;13.418;2023-10-31T01:10:20;98944.53;;;13.13;100.00
62694;BME280;48759;52.544;13.418;2023-10-31T01:12:47;98936.31;;;13.02;100.00
62694;BME280;48759;52.544;13.418;2023-10-31T01:15:15;98923.44;;;13.02;100.00
62694;BME280;48759;52.544;13.418;2023-10-31T01:17:42;98917.94;;;13.02;100.00
62694;BME280;48759;52.544;13.418;2023-10-31T01:20:09;98912.34;;;12.97;100.00
62694;BME280;48759;52.544;13.418;2023-10-31T01:22:36;98911.47;;;13.08;100.00
62694;BME280;48759;52.544;13.418;2023-10-31T01:25:04;98913.47;;;13.25;100.00
62694;BME280;48759;52.544;13.418;2023-10-31T01:27:31;98896.06;;;13.19;100.00
62694;BME280;48759;52.544;13.418;2023-10-31T01:29:57;98891.84;;;12.88;100.00
62694;BME280;48759;52.544;13.418;2023-10-31T01:32:25;98875.16;;;12.78;100.00
62694;BME280;48759;52.544;13.418;2023-10-31T01:34:52;98868.50;;;12.74;100.00
62694;BME280;48759;52.544;13.418;2023-10-31T01:37:18;98848.56;;;12.78;100.00
62694;BME280;48759;52.544;13.418;2023-10-31T01:39:46;98850.47;;;12.90;100.00
62694;BME280;48759;52.544;13.418;2023-10-31T01:42:14;98866.09;;;12.89;100.00
62694;BME280;48759;52.544;13.418;2023-10-31T01:44:41;98889.94;;;12.77;100.00
62694;BME280;48759;52.544;13.418;2023-10-31T01:47:07;98896.22;;;13.01;100.00
62694;BME280;48759;52.544;13.418;2023-10-31T01:49:36;98870.81;;;13.05;100.00
62694;BME280;48759;52.544;13.418;2023-10-31T01:52:03;98865.34;;;13.05;100.00
62694;BME280;48759;52.544;13.418;2023-10-31T01:54:31;98871.34;;;12.79;100.00
62694;BME280;48759;52.544;13.418;2023-10-31T01:56:59;98869.53;;;12.96;100.00
62694;BME280;48759;52.544;13.418;2023-10-31T01:59:27;98871.44;;;12.84;100.00
62694;BME280;48759;52.544;13.418;2023-10-31T02:01:54;98867.47;;;13.03;100.00
62694;BME280;48759;52.544;13.418;2023-10-31T02:04:21;98861.31;;;12.96;100.00
62694;BME280;48759;52.544;13.418;2023-10-31T02:06:49;98862.09;;;13.08;100.00
62694;BME280;48759;52.544;13.418;2023-10-31T02:09:15;98841.56;;;13.11;100.00
62694;BME280;48759;52.544;13.418;2023-10-31T02:11:42;98831.91;;;13.08;100.00
62694;BME280;48759;52.544;13.418;2023-10-31T02:14:09;98819.97;;;13.14;100.00
62694;BME280;48759;52.544;13.418;2023-10-31T02:16:35;98830.28;;;12.84;100.00
62694;BME280;48759;52.544;13.418;2023-10-31T02:19:03;98831.72;;;12.98;100.00
62694;BME280;48759;52.544;13.418;2023-10-31T02:21:30;98826.31;;;13.03;100.00
62694;BME280;48759;52.544;13.418;2023-10-31T02:24:00;98805.34;;;12.97;100.00
62694;BME280;48759;52.544;13.418;2023-10-31T02:26:30;98815.88;;;12.89;100.00
62694;BME280;48759;52.544;13.418;2023-10-31T02:28:57;98807.59;;;13.00;100.00
62694;BME280;48759;52.544;13.418;2023-10-31T02:31:24;98808.16;;;12.74;100.00
62694;BME280;48759;52.544;13.418;2023-10-31T02:33:51;98798.63;;;12.65;100.00
62694;BME280;48759;52.544;13.418;2023-10-31T02:36:17;98776.41;;;12.78;100.00
62694;BME280;48759;52.544;13.418;2023-10-31T02:38:44;98778.56;;;12.76;100.00
62694;BME280;48759;52.544;13.418;2023-10-31T02:41:12;98786.41;;;12.84;100.00
62694;BME280;48759;52.544;13.418;2023-10-31T02:43:40;98805.75;;;12.89;100.00
62694;BME280;48759;52.544;13.418;2023-10-31T02:46:07;98806.97;;;12.70;100.00
62694;BME280;48759;52.544;13.418;2023-10-31T02:48:35;98808.25;;;12.79;100.00
62694;BME280;48759;52.544;13.418;2023-10-31T02:51:05;98807.19;;;12.80;100.00
62694;BME280;48759;52.544;13.418;2023-10-31T02:53:32;98796.88;;;12.59;100.00
62694;BME280;48759;52.544;13.418;2023-10-31T02:55:58;98799.06;;;12.85;100.00
62694;BME280;48759;52.544;13.418;2023-10-31T02:58:26;98792.84;;;12.90;100.00
62694;BME280;48759;52.544;13.418;2023-10-31T03:00:53;98785.56;;;12.83;100.00
62694;BME280;48759;52.544;13.418;2023-10-31T03:03:20;98781.59;;;12.63;100.00
62694;BME280;48759;52.544;13.418;2023-10-31T03:05:47;98779.53;;;12.81;100.00
62694;BME280;48759;52.544;13.418;2023-10-31T03:08:13;98779.06;;;12.73;100.00
62694;BME280;48759;52.544;13.418;2023-10-31T03:10:41;98778.56;;;12.76;100.00
62694;BME280;48759;52.544;13.418;2023-10-31T03:13:07;98782.44;;;12.92;100.00
62694;BME280;48759;52.544;13.418;2023-10-31T03:15:35;98776.50;;;12.95;100.00
62694;BME280;48759;52.544;13.418;2023-10-31T03:18:02;98768.31;;;12.83;100.00
62694;BME280;48759;52.544;13.418;2023-10-31T03:20:29;98762.72;;;12.78;100.00
62694;BME280;48759;52.544;13.418;2023-10-31T03:22:55;98758.97;;;12.84;100.00
62694;BME280;48759;52.544;13.418;2023-10-31T03:25:22;98768.84;;;12.57;100.00
62694;BME280;48759;52.544;13.418;2023-10-31T03:27:49;98771.81;;;12.67;100.00
62694;BME280;48759;52.544;13.418;2023-10-31T03:30:15;98767.78;;;12.58;100.00
62694;BME280;48759;52.544;13.418;2023-10-31T03:32:43;98770.38;;;12.64;100.00
62694;BME280;48759;52.544;13.418;2023-10-31T03:35:10;98772.00;;;12.77;100.00
62694;BME280;48759;52.544;13.418;2023-10-31T03:37:36;98768.56;;;12.70;100.00
62694;BME280;48759;52.544;13.418;2023-10-31T03:40:07;98776.94;;;12.75;100.00
62694;BME280;48759;52.544;13.418;2023-10-31T03:42:34;98783.34;;;12.80;100.00
62694;BME280;48759;52.544;13.418;2023-10-31T03:45:01;98781.69;;;12.68;100.00
62694;BME280;48759;52.544;13.418;2023-10-31T03:47:28;98779.31;;;12.71;100.00
62694;BME280;48759;52.544;13.418;2023-10-31T03:49:56;98776.94;;;12.75;100.00
62694;BME280;48759;52.544;13.418;2023-10-31T03:52:22;98780.97;;;12.61;100.00
62694;BME280;48759;52.544;13.418;2023-10-31T03:54:49;98782.28;;;12.70;100.00
62694;BME280;48759;52.544;13.418;2023-10-31T03:57:16;98784.41;;;12.68;100.00
62694;BME280;48759;52.544;13.418;2023-10-31T03:59:42;98784.41;;;12.68;100.00
62694;BME280;48759;52.544;13.418;2023-10-31T04:02:09;98779.53;;;12.70;100.00
62694;BME280;48759;52.544;13.418;2023-10-31T04:04:35;98780.28;;;12.54;100.00
62694;BME280;48759;52.544;13.418;2023-10-31T04:07:04;98783.63;;;12.56;100.00
62694;BME280;48759;52.544;13.418;2023-10-31T04:09:30;98778.00;;;12.62;100.00
62694;BME280;48759;52.544;13.418;2023-10-31T04:11:57;98784.00;;;12.59;100.00
62694;BME280;48759;52.544;13.418;2023-10-31T04:14:23;98783.63;;;12.56;100.00
62694;BME280;48759;52.544;13.418;2023-10-31T04:16:50;98781.72;;;12.44;100.00
62694;BME280;48759;52.544;13.418;2023-10-31T04:19:17;98788.88;;;12.45;100.00
62694;BME280;48759;52.544;13.418;2023-10-31T04:21:43;98782.22;;;12.41;100.00
62694;BME280;48759;52.544;13.418;2023-10-31T04:24:11;98788.66;;;12.35;100.00
62694;BME280;48759;52.544;13.418;2023-10-31T04:26:39;98779.59;;;12.47;100.00
62694;BME280;48759;52.544;13.418;2023-10-31T04:29:06;98785.31;;;12.33;100.00
62694;BME280;48759;52.544;13.418;2023-10-31T04:31:33;98783.19;;;12.35;100.00
62694;BME280;48759;52.544;13.418;2023-10-31T04:33:59;98777.00;;;12.28;100.00
62694;BME280;48759;52.544;13.418;2023-10-31T04:36:26;98772.13;;;12.19;100.00
62694;BME280;48759;52.544;13.418;2023-10-31T04:38:53;98774.34;;;12.10;100.00
62694;BME280;48759;52.544;13.418;2023-10-31T04:41:21;98771.34;;;12.00;100.00
62694;BME280;48759;52.544;13.418;2023-10-31T04:43:48;98769.13;;;11.97;100.00
62694;BME280;48759;52.544;13.418;2023-10-31T04:46:14;98769.44;;;12.00;100.00
62694;BME280;48759;52.544;13.418;2023-10-31T04:48:41;98762.78;;;12.08;100.00
62694;BME280;48759;52.544;13.418;2023-10-31T04:51:08;98763.84;;;12.07;100.00
62694;BME280;48759;52.544;13.418;2023-10-31T04:53:35;98761.94;;;12.07;100.00
62694;BME280;48759;52.544;13.418;2023-10-31T04:56:02;98753.78;;;12.19;100.00
62694;BME280;48759;52.544;13.418;2023-10-31T04:58:30;98760.03;;;12.08;100.00
62694;BME280;48759;52.544;13.418;2023-10-31T05:00:57;98762.00;;;12.19;100.00
62694;BME280;48759;52.544;13.418;2023-10-31T05:03:25;98764.13;;;12.17;100.00
62694;BME280;48759;52.544;13.418;2023-10-31T05:05:51;98767.47;;;12.19;100.00
62694;BME280;48759;52.544;13.418;2023-10-31T05:08:18;98760.09;;;12.20;100.00
62694;BME280;48759;52.544;13.418;2023-10-31T05:10:45;98761.72;;;12.09;100.00
62694;BME280;48759;52.544;13.418;2023-10-31T05:13:12;98757.44;;;12.13;100.00
62694;BME280;48759;52.544;13.418;2023-10-31T05:15:41;98763.66;;;12.20;100.00
62694;BME280;48759;52.544;13.418;2023-10-31T05:18:07;98759.72;;;12.16;100.00
62694;BME280;48759;52.544;13.418;2023-10-31T05:20:34;98764.22;;;12.11;100.00
62694;BME280;48759;52.544;13.418;2023-10-31T05:23:00;98771.59;;;12.10;100.00
62694;BME280;48759;52.544;13.418;2023-10-31T05:25:27;98769.25;;;12.14;100.00
62694;BME280;48759;52.544;13.418;2023-10-31T05:27:54;98772.34;;;12.17;100.00
62694;BME280;48759;52.544;13.418;2023-10-31T05:30:21;98764.97;;;12.18;100.00
62694;BME280;48759;52.544;13.418;2023-10-31T05:32:49;98769.25;;;12.25;100.00
62694;BME280;48759;52.544;13.418;2023-10-31T05:35:16;98754.94;;;12.35;100.00
62694;BME280;48759;52.544;13.418;2023-10-31T05:37:45;98758.38;;;12.30;100.00
62694;BME280;48759;52.544;13.418;2023-10-31T05:40:13;98765.06;;;12.34;100.00
62694;BME280;48759;52.544;13.418;2023-10-31T05:42:40;98761.63;;;12.27;100.00
62694;BME280;48759;52.544;13.418;2023-10-31T05:45:08;98761.03;;;12.25;100.00
62694;BME280;48759;52.544;13.418;2023-10-31T05:47:36;98763.53;;;12.27;100.00
62694;BME280;48759;52.544;13.418;2023-10-31T05:50:05;98759.13;;;12.26;100.00
62694;BME280;48759;52.544;13.418;2023-10-31T05:52:31;98755.78;;;12.24;100.00
62694;BME280;48759;52.544;13.418;2023-10-31T05:54:58;98767.56;;;12.24;100.00
62694;BME280;48759;52.544;13.418;2023-10-31T05:57:25;98760.56;;;12.28;100.00
62694;BME280;48759;52.544;13.418;2023-10-31T05:59:52;98771.03;;;12.31;100.00
62694;BME280;48759;52.544;13.418;2023-10-31T06:02:18;98779.25;;;12.31;100.00
62694;BME280;48759;52.544;13.418;2023-10-31T06:04:45;98775.06;;;12.40;100.00
62694;BME280;48759;52.544;13.418;2023-10-31T06:07:13;98778.41;;;12.42;100.00
62694;BME280;48759;52.544;13.418;2023-10-31T06:09:40;98778.97;;;12.44;100.00
62694;BME280;48759;52.544;13.418;2023-10-31T06:12:06;98774.47;;;12.50;100.00
62694;BME280;48759;52.544;13.418;2023-10-31T06:14:33;98778.03;;;12.51;100.00
62694;BME280;48759;52.544;13.418;2023-10-31T06:16:59;98776.97;;;12.52;100.00
62694;BME280;48759;52.544;13.418;2023-10-31T06:19:26;98778.50;;;12.59;100.00
62694;BME280;48759;52.544;13.418;2023-10-31T06:21:54;98789.22;;;12.61;100.00
62694;BME280;48759;52.544;13.418;2023-10-31T06:24:22;98791.47;;;12.75;100.00
62694;BME280;48759;52.544;13.418;2023-10-31T06:26:49;98785.63;;;12.60;100.00
62694;BME280;48759;52.544;13.418;2023-10-31T06:29:18;98798.72;;;12.70;100.00
62694;BME280;48759;52.544;13.418;2023-10-31T06:31:44;98804.34;;;12.75;100.00
62694;BME280;48759;52.544;13.418;2023-10-31T06:34:11;98803.75;;;12.61;100.00
62694;BME280;48759;52.544;13.418;2023-10-31T06:36:37;98801.97;;;12.67;100.00
62694;BME280;48759;52.544;13.418;2023-10-31T06:39:04;98801.00;;;12.73;100.00
62694;BME280;48759;52.544;13.418;2023-10-31T06:41:32;98799.94;;;12.74;100.00
62694;BME280;48759;52.544;13.418;2023-10-31T06:43:59;98816.16;;;12.75;100.00
62694;BME280;48759;52.544;13.418;2023-10-31T06:46:26;98818.50;;;12.83;100.00
62694;BME280;48759;52.544;13.418;2023-10-31T06:48:53;98818.50;;;12.83;100.00
62694;BME280;48759;52.544;13.418;2023-10-31T06:51:20;98821.97;;;12.79;100.00
62694;BME280;48759;52.544;13.418;2023-10-31T06:53:46;98820.16;;;12.96;100.00
62694;BME280;48759;52.544;13.418;2023-10-31T06:56:13;98821.59;;;12.87;100.00
62694;BME280;48759;52.544;13.418;2023-10-31T06:58:41;98821.97;;;12.91;100.00
62694;BME280;48759;52.544;13.418;2023-10-31T07:01:08;98826.34;;;12.92;100.00
62694;BME280;48759;52.544;13.418;2023-10-31T07:03:35;98827.41;;;13.02;100.00
62694;BME280;48759;52.544;13.418;2023-10-31T07:06:02;98838.97;;;13.04;100.00
62694;BME280;48759;52.544;13.418;2023-10-31T07:08:28;98836.56;;;13.08;100.00
62694;BME280;48759;52.544;13.418;2023-10-31T07:10:55;98838.69;;;13.17;100.00
62694;BME280;48759;52.544;13.418;2023-10-31T07:13:22;98843.56;;;13.15;100.00
62694;BME280;48759;52.544;13.418;2023-10-31T07:15:50;98848.69;;;13.23;100.00
62694;BME280;48759;52.544;13.418;2023-10-31T07:18:17;98851.78;;;13.27;100.00
62694;BME280;48759;52.544;13.418;2023-10-31T07:20:43;98852.13;;;13.31;100.00
62694;BME280;48759;52.544;13.418;2023-10-31T07:23:10;98863.75;;;13.21;100.00
62694;BME280;48759;52.544;13.418;2023-10-31T07:25:37;98882.34;;;13.19;100.00
62694;BME280;48759;52.544;13.418;2023-10-31T07:28:04;98871.28;;;13.02;100.00
62694;BME280;48759;52.544;13.418;2023-10-31T07:30:31;98882.41;;;12.96;100.00
62694;BME280;48759;52.544;13.418;2023-10-31T07:32:59;98873.25;;;12.90;100.00
62694;BME280;48759;52.544;13.418;2023-10-31T07:35:26;98873.72;;;12.87;100.00
62694;BME280;48759;52.544;13.418;2023-10-31T07:37:53;98883.72;;;12.93;100.00
62694;BME280;48759;52.544;13.418;2023-10-31T07:40:19;98878.34;;;12.98;100.00
62694;BME280;48759;52.544;13.418;2023-10-31T07:42:46;98883.72;;;12.93;100.00
62694;BME280;48759;52.544;13.418;2023-10-31T07:45:13;98869.78;;;12.83;100.00
62694;BME280;48759;52.544;13.418;2023-10-31T07:47:39;98901.59;;;12.84;100.00
62694;BME280;48759;52.544;13.418;2023-10-31T07:50:09;98895.41;;;12.77;100.00
62694;BME280;48759;52.544;13.418;2023-10-31T07:52:36;98906.63;;;12.87;100.00
62694;BME280;48759;52.544;13.418;2023-10-31T07:55:03;98916.53;;;12.88;100.00
62694;BME280;48759;52.544;13.418;2023-10-31T07:57:30;98915.22;;;12.79;100.00
62694;BME280;48759;52.544;13.418;2023-10-31T07:59:56;98912.22;;;12.92;100.00
62694;BME280;48759;52.544;13.418;2023-10-31T08:02:23;98921.78;;;12.78;100.00
62694;BME280;48759;52.544;13.418;2023-10-31T08:04:50;98915.47;;;12.66;100.00
62694;BME280;48759;52.544;13.418;2023-10-31T08:07:18;98918.31;;;12.71;100.00
62694;BME280;48759;52.544;13.418;2023-10-31T08:09:44;98909.50;;;12.69;100.00
62694;BME280;48759;52.544;13.418;2023-10-31T08:12:11;98918.69;;;12.63;100.00
62694;BME280;48759;52.544;13.418;2023-10-31T08:14:38;98922.75;;;12.72;100.00
62694;BME280;48759;52.544;13.418;2023-10-31T08:17:05;98934.09;;;12.75;100.00
62694;BME280;48759;52.544;13.418;2023-10-31T08:19:31;98938.13;;;12.73;100.00
62694;BME280;48759;52.544;13.418;2023-10-31T08:21:58;98943.72;;;12.78;100.00
62694;BME280;48759;52.544;13.418;2023-10-31T08:24:26;98935.59;;;12.95;100.00
62694;BME280;48759;52.544;13.418;2023-10-31T08:26:53;98940.97;;;12.78;100.00
62694;BME280;48759;52.544;13.418;2023-10-31T08:29:20;98961.13;;;12.83;100.00
62694;BME280;48759;52.544;13.418;2023-10-31T08:31:46;98945.50;;;12.84;100.00
62694;BME280;48759;52.544;13.418;2023-10-31T08:34:13;98952.41;;;12.87;100.00
62694;BME280;48759;52.544;13.418;2023-10-31T08:36:40;98965.06;;;12.76;100.00
62694;BME280;48759;52.544;13.418;2023-10-31T08:39:07;98971.63;;;12.87;100.00
62694;BME280;48759;52.544;13.418;2023-10-31T08:41:35;98976.63;;;12.78;100.00
62694;BME280;48759;52.544;13.418;2023-10-31T08:44:03;98964.00;;;12.89;100.00
62694;BME280;48759;52.544;13.418;2023-10-31T08:46:30;98982.00;;;12.96;100.00
62694;BME280;48759;52.544;13.418;2023-10-31T08:48:56;98979.88;;;12.98;100.00
62694;BME280;48759;52.544;13.418;2023-10-31T08:51:23;98986.66;;;13.19;100.00
62694;BME280;48759;52.544;13.418;2023-10-31T08:53:50;98980.78;;;13.15;100.00
62694;BME280;48759;52.544;13.418;2023-10-31T08:56:17;99002.28;;;12.95;100.00
62694;BME280;48759;52.544;13.418;2023-10-31T08:58:46;98990.13;;;12.91;100.00
62694;BME280;48759;52.544;13.418;2023-10-31T09:01:12;98983.69;;;12.97;100.00
62694;BME280;48759;52.544;13.418;2023-10-31T09:03:39;98999.41;;;13.02;100.00
62694;BME280;48759;52.544;13.418;2023-10-31T09:06:06;99008.47;;;13.02;100.00
62694;BME280;48759;52.544;13.418;2023-10-31T09:08:33;98994.88;;;12.84;100.00
62694;BME280;48759;52.544;13.418;2023-10-31T09:11:00;98990.59;;;12.88;100.00
62694;BME280;48759;52.544;13.418;2023-10-31T09:13:27;98996.22;;;13.05;100.00
62694;BME280;48759;52.544;13.418;2023-10-31T09:15:55;99010.16;;;13.27;100.00
62694;BME280;48759;52.544;13.418;2023-10-31T09:18:23;99004.06;;;13.13;100.00
62694;BME280;48759;52.544;13.418;2023-10-31T09:20:50;99018.16;;;13.40;100.00
62694;BME280;48759;52.544;13.418;2023-10-31T09:23:17;99002.88;;;13.44;100.00
62694;BME280;48759;52.544;13.418;2023-10-31T09:25:43;99012.50;;;13.70;100.00
62694;BME280;48759;52.544;13.418;2023-10-31T09:28:10;99024.94;;;13.61;100.00
62694;BME280;48759;52.544;13.418;2023-10-31T09:30:37;99010.63;;;13.47;100.00
62694;BME280;48759;52.544;13.418;2023-10-31T09:33:05;99002.53;;;13.40;100.00
62694;BME280;48759;52.544;13.418;2023-10-31T09:35:32;99016.56;;;13.67;100.00
62694;BME280;48759;52.544;13.418;2023-10-31T09:37:58;99019.25;;;13.90;100.00
62694;BME280;48759;52.544;13.418;2023-10-31T09:40:25;99029.69;;;13.77;100.00
62694;BME280;48759;52.544;13.418;2023-10-31T09:42:51;99029.41;;;14.18;100.00
62694;BME280;48759;52.544;13.418;2023-10-31T09:45:18;99036.75;;;13.61;100.00
62694;BME280;48759;52.544;13.418;2023-10-31T09:47:45;99024.56;;;13.69;100.00
62694;BME280;48759;52.544;13.418;2023-10-31T09:50:13;99038.22;;;13.40;100.00
62694;BME280;48759;52.544;13.418;2023-10-31T09:52:40;99055.06;;;13.44;100.00
62694;BME280;48759;52.544;13.418;2023-10-31T09:55:08;99041.78;;;13.52;100.00
62694;BME280;48759;52.544;13.418;2023-10-31T09:57:34;99055.06;;;13.44;100.00
62694;BME280;48759;52.544;13.418;2023-10-31T10:00:01;99053.13;;;13.56;100.00
62694;BME280;48759;52.544;13.418;2023-10-31T10:02:28;99051.44;;;13.55;100.00
62694;BME280;48759;52.544;13.418;2023-10-31T10:04:56;99058.47;;;13.63;100.00
62694;BME280;48759;52.544;13.418;2023-10-31T10:07:24;99054.19;;;13.55;100.00
62694;BME280;48759;52.544;13.418;2023-10-31T10:09:50;99054.31;;;13.25;100.00
62694;BME280;48759;52.544;13.418;2023-10-31T10:12:17;99084.88;;;13.29;100.00
62694;BME280;48759;52.544;13.418;2023-10-31T10:14:45;99072.00;;;13.41;100.00
62694;BME280;48759;52.544;13.418;2023-10-31T10:17:14;99063.88;;;13.46;100.00
62694;BME280;48759;52.544;13.418;2023-10-31T10:19:41;99079.75;;;13.44;100.00
62694;BME280;48759;52.544;13.418;2023-10-31T10:22:08;99063.28;;;13.44;100.00
62694;BME280;48759;52.544;13.418;2023-10-31T10:24:39;99061.81;;;13.65;100.00
62694;BME280;48759;52.544;13.418;2023-10-31T10:27:06;99079.84;;;13.72;100.00
62694;BME280;48759;52.544;13.418;2023-10-31T10:29:33;99072.94;;;13.58;100.00
62694;BME280;48759;52.544;13.418;2023-10-31T10:32:00;99074.34;;;13.72;100.00
62694;BME280;48759;52.544;13.418;2023-10-31T10:34:27;99083.78;;;13.76;100.00
62694;BME280;48759;52.544;13.418;2023-10-31T10:36:55;99077.09;;;13.84;100.00
62694;BME280;48759;52.544;13.418;2023-10-31T10:39:22;99082.50;;;13.67;100.00
62694;BME280;48759;52.544;13.418;2023-10-31T10:41:53;99085.91;;;13.86;100.00
62694;BME280;48759;52.544;13.418;2023-10-31T10:44:31;99090.31;;;13.98;100.00
62694;BME280;48759;52.544;13.418;2023-10-31T10:47:01;99080.06;;;13.82;100.00
62694;BME280;48759;52.544;13.418;2023-10-31T10:49:27;99068.09;;;14.00;100.00
62694;BME280;48759;52.544;13.418;2023-10-31T10:51:58;99072.81;;;14.16;100.00
62694;BME280;48759;52.544;13.418;2023-10-31T10:54:32;99077.56;;;14.21;100.00
62694;BME280;48759;52.544;13.418;2023-10-31T10:57:11;99066.72;;;14.14;100.00
62694;BME280;48759;52.544;13.418;2023-10-31T10:59:42;99069.91;;;13.83;100.00
62694;BME280;48759;52.544;13.418;2023-10-31T11:02:09;99067.13;;;13.94;100.00
62694;BME280;48759;52.544;13.418;2023-10-31T11:04:38;99074.06;;;14.25;100.00
62694;BME280;48759;52.544;13.418;2023-10-31T11:07:05;99067.16;;;14.51;100.00
62694;BME280;48759;52.544;13.418;2023-10-31T11:09:33;99066.69;;;14.54;100.00
62694;BME280;48759;52.544;13.418;2023-10-31T11:12:00;99081.41;;;14.48;100.00
62694;BME280;48759;52.544;13.418;2023-10-31T11:14:28;99066.44;;;14.27;100.00
62694;BME280;48759;52.544;13.418;2023-10-31T11:16:59;99064.59;;;14.33;100.00
62694;BME280;48759;52.544;13.418;2023-10-31T11:19:27;99058.31;;;14.21;100.00
62694;BME280;48759;52.544;13.418;2023-10-31T11:21:57;99067.06;;;14.18;100.00
62694;BME280;48759;52.544;13.418;2023-10-31T11:24:26;99065.44;;;14.05;100.00
62694;BME280;48759;52.544;13.418;2023-10-31T11:26:57;99073.06;;;14.15;100.00
62694;BME280;48759;52.544;13.418;2023-10-31T11:29:24;99086.19;;;14.13;100.00
62694;BME280;48759;52.544;13.418;2023-10-31T11:31:54;99075.31;;;14.18;100.00
62694;BME280;48759;52.544;13.418;2023-10-31T11:34:20;99072.63;;;13.94;100.00
62694;BME280;48759;52.544;13.418;2023-10-31T11:36:47;99080.91;;;13.83;100.00
62694;BME280;48759;52.544;13.418;2023-10-31T11:39:15;99088.53;;;13.92;100.00
62694;BME280;48759;52.544;13.418;2023-10-31T11:41:45;99081.13;;;13.93;100.00
62694;BME280;48759;52.544;13.418;2023-10-31T11:44:15;99089.25;;;13.88;100.00
62694;BME280;48759;52.544;13.418;2023-10-31T11:46:41;99091.75;;;13.89;100.00
62694;BME280;48759;52.544;13.418;2023-10-31T11:49:10;99096.28;;;13.95;100.00
62694;BME280;48759;52.544;13.418;2023-10-31T11:51:36;99103.16;;;14.10;100.00
62694;BME280;48759;52.544;13.418;2023-10-31T11:54:04;99109.66;;;14.04;100.00
62694;BME280;48759;52.544;13.418;2023-10-31T11:56:34;99110.78;;;14.19;100.00
62694;BME280;48759;52.544;13.418;2023-10-31T11:59:02;99115.03;;;13.98;100.00
62694;BME280;48759;52.544;13.418;2023-10-31T12:01:29;99134.69;;;14.19;100.00
62694;BME280;48759;52.544;13.418;2023-10-31T12:03:56;99138.75;;;14.28;100.00
62694;BME280;48759;52.544;13.418;2023-10-31T12:06:24;99129.63;;;14.39;100.00
62694;BME280;48759;52.544;13.418;2023-10-31T12:08:51;99145.28;;;13.98;100.00
62694;BME280;48759;52.544;13.418;2023-10-31T12:11:19;99123.19;;;13.82;100.00
62694;BME280;48759;52.544;13.418;2023-10-31T12:13:54;99151.00;;;13.62;100.00
62694;BME280;48759;52.544;13.418;2023-10-31T12:16:29;99130.25;;;13.43;100.00
62694;BME280;48759;52.544;13.418;2023-10-31T12:18:57;99135.50;;;13.56;100.00
62694;BME280;48759;52.544;13.418;2023-10-31T12:21:41;99140.59;;;13.29;100.00
62694;BME280;48759;52.544;13.418;2023-10-31T12:24:10;99139.56;;;13.42;100.00
62694;BME280;48759;52.544;13.418;2023-10-31T12:26:37;99148.66;;;13.54;100.00
62694;BME280;48759;52.544;13.418;2023-10-31T12:29:08;99151.75;;;13.69;100.00
62694;BME280;48759;52.544;13.418;2023-10-31T12:31:39;99156.28;;;13.75;100.00
62694;BME280;48759;52.544;13.418;2023-10-31T12:34:06;99152.69;;;13.63;100.00
62694;BME280;48759;52.544;13.418;2023-10-31T12:36:34;99153.53;;;13.98;100.00
62694;BME280;48759;52.544;13.418;2023-10-31T12:39:04;99165.81;;;14.08;100.00
62694;BME280;48759;52.544;13.418;2023-10-31T12:41:34;99172.06;;;13.68;100.00